sensor_id;sensor_type;location;lat;lon;timestamp;P1;durP1;ratioP1;P2;durP2;ratioP2
75167;SDS011;63748;48.088;11.476;2023-05-07T00:01:49;5.50;;;2.20;;
75167;SDS011;63748;48.088;11.476;2023-05-07T00:04:15;2.67;;;1.95;;
75167;SDS011;63748;48.088;11.476;2023-05-07T00:06:41;2.30;;;1.85;;
75167;SDS011;63748;48.088;11.476;2023-05-07T00:09:07;3.25;;;1.80;;
75167;SDS011;63748;48.088;11.476;2023-05-07T00:11:33;4.53;;;1.95;;
75167;SDS011;63748;48.088;11.476;2023-05-07T00:14:00;3.25;;;2.65;;
75167;SDS011;63748;48.088;11.476;2023-05-07T00:16:26;3.72;;;2.20;;
75167;SDS011;63748;48.088;11.476;2023-05-07T00:18:52;3.40;;;2.25;;
75167;SDS011;63748;48.088;11.476;2023-05-07T00:21:18;2.85;;;2.60;;
75167;SDS011;63748;48.088;11.476;2023-05-07T00:23:46;3.40;;;2.05;;
75167;SDS011;63748;48.088;11.476;2023-05-07T00:26:12;3.20;;;2.05;;
75167;SDS011;63748;48.088;11.476;2023-05-07T00:28:38;2.88;;;1.83;;
75167;SDS011;63748;48.088;11.476;2023-05-07T00:31:04;3.90;;;2.00;;
75167;SDS011;63748;48.088;11.476;2023-05-07T00:33:30;3.15;;;1.95;;
75167;SDS011;63748;48.088;11.476;2023-05-07T00:35:56;3.22;;;1.90;;
75167;SDS011;63748;48.088;11.476;2023-05-07T00:38:22;5.22;;;1.98;;
75167;SDS011;63748;48.088;11.476;2023-05-07T00:40:49;3.90;;;2.08;;
75167;SDS011;63748;48.088;11.476;2023-05-07T00:43:16;5.30;;;2.00;;
75167;SDS011;63748;48.088;11.476;2023-05-07T00:45:42;2.22;;;1.60;;
75167;SDS011;63748;48.088;11.476;2023-05-07T00:48:08;3.45;;;1.90;;
75167;SDS011;63748;48.088;11.476;2023-05-07T00:50:34;3.53;;;1.80;;
75167;SDS011;63748;48.088;11.476;2023-05-07T00:53:00;2.45;;;1.92;;
75167;SDS011;63748;48.088;11.476;2023-05-07T00:55:27;3.08;;;1.98;;
75167;SDS011;63748;48.088;11.476;2023-05-07T00:57:53;2.97;;;2.05;;
75167;SDS011;63748;48.088;11.476;2023-05-07T01:00:19;4.22;;;2.10;;
75167;SDS011;63748;48.088;11.476;2023-05-07T01:02:46;3.78;;;2.13;;
75167;SDS011;63748;48.088;11.476;2023-05-07T01:05:13;3.97;;;1.88;;
75167;SDS011;63748;48.088;11.476;2023-05-07T01:07:40;2.70;;;2.15;;
75167;SDS011;63748;48.088;11.476;2023-05-07T01:10:07;3.10;;;1.92;;
75167;SDS011;63748;48.088;11.476;2023-05-07T01:12:35;3.60;;;1.92;;
75167;SDS011;63748;48.088;11.476;2023-05-07T01:15:02;5.55;;;2.38;;
75167;SDS011;63748;48.088;11.476;2023-05-07T01:17:29;5.32;;;2.13;;
75167;SDS011;63748;48.088;11.476;2023-05-07T01:19:55;7.15;;;2.38;;
75167;SDS011;63748;48.088;11.476;2023-05-07T01:22:54;3.13;;;2.20;;
75167;SDS011;63748;48.088;11.476;2023-05-07T01:25:13;4.47;;;2.20;;
75167;SDS011;63748;48.088;11.476;2023-05-07T01:27:41;2.80;;;1.90;;
75167;SDS011;63748;48.088;11.476;2023-05-07T01:30:07;2.92;;;2.10;;
75167;SDS011;63748;48.088;11.476;2023-05-07T01:32:35;4.15;;;2.38;;
75167;SDS011;63748;48.088;11.476;2023-05-07T01:35:05;3.72;;;1.95;;
75167;SDS011;63748;48.088;11.476;2023-05-07T01:37:31;3.10;;;2.33;;
75167;SDS011;63748;48.088;11.476;2023-05-07T01:39:57;4.05;;;2.00;;
75167;SDS011;63748;48.088;11.476;2023-05-07T01:42:24;3.00;;;1.90;;
75167;SDS011;63748;48.088;11.476;2023-05-07T01:44:50;3.50;;;2.00;;
75167;SDS011;63748;48.088;11.476;2023-05-07T01:47:16;2.63;;;2.00;;
75167;SDS011;63748;48.088;11.476;2023-05-07T01:49:42;3.78;;;2.00;;
75167;SDS011;63748;48.088;11.476;2023-05-07T01:52:10;3.80;;;2.10;;
75167;SDS011;63748;48.088;11.476;2023-05-07T01:54:36;2.97;;;2.30;;
75167;SDS011;63748;48.088;11.476;2023-05-07T01:57:03;5.32;;;2.88;;
75167;SDS011;63748;48.088;11.476;2023-05-07T01:59:29;4.03;;;2.85;;
75167;SDS011;63748;48.088;11.476;2023-05-07T02:01:55;3.95;;;2.85;;
75167;SDS011;63748;48.088;11.476;2023-05-07T02:04:21;4.90;;;2.58;;
75167;SDS011;63748;48.088;11.476;2023-05-07T02:06:47;3.13;;;2.20;;
75167;SDS011;63748;48.088;11.476;2023-05-07T02:09:13;2.90;;;2.42;;
75167;SDS011;63748;48.088;11.476;2023-05-07T02:11:40;2.47;;;2.03;;
75167;SDS011;63748;48.088;11.476;2023-05-07T02:14:06;2.50;;;1.83;;
75167;SDS011;63748;48.088;11.476;2023-05-07T02:16:32;3.80;;;2.15;;
75167;SDS011;63748;48.088;11.476;2023-05-07T02:18:58;4.63;;;2.20;;
75167;SDS011;63748;48.088;11.476;2023-05-07T02:21:24;4.25;;;2.08;;
75167;SDS011;63748;48.088;11.476;2023-05-07T02:23:51;3.90;;;1.77;;
75167;SDS011;63748;48.088;11.476;2023-05-07T02:26:17;2.70;;;2.13;;
75167;SDS011;63748;48.088;11.476;2023-05-07T02:28:43;4.60;;;2.22;;
75167;SDS011;63748;48.088;11.476;2023-05-07T02:31:09;2.58;;;2.13;;
75167;SDS011;63748;48.088;11.476;2023-05-07T02:33:35;2.55;;;2.08;;
75167;SDS011;63748;48.088;11.476;2023-05-07T02:36:07;3.05;;;1.90;;
75167;SDS011;63748;48.088;11.476;2023-05-07T02:38:33;2.85;;;2.15;;
75167;SDS011;63748;48.088;11.476;2023-05-07T02:40:59;1.80;;;1.67;;
75167;SDS011;63748;48.088;11.476;2023-05-07T02:43:25;2.20;;;1.85;;
75167;SDS011;63748;48.088;11.476;2023-05-07T02:46:07;2.60;;;2.40;;
75167;SDS011;63748;48.088;11.476;2023-05-07T02:48:34;3.85;;;2.55;;
75167;SDS011;63748;48.088;11.476;2023-05-07T02:51:00;5.13;;;2.42;;
75167;SDS011;63748;48.088;11.476;2023-05-07T02:53:26;2.10;;;1.83;;
75167;SDS011;63748;48.088;11.476;2023-05-07T02:55:54;7.20;;;2.95;;
75167;SDS011;63748;48.088;11.476;2023-05-07T02:58:20;2.80;;;1.77;;
75167;SDS011;63748;48.088;11.476;2023-05-07T03:00:47;4.95;;;2.40;;
75167;SDS011;63748;48.088;11.476;2023-05-07T03:03:13;2.50;;;2.30;;
75167;SDS011;63748;48.088;11.476;2023-05-07T03:05:39;4.75;;;2.72;;
75167;SDS011;63748;48.088;11.476;2023-05-07T03:08:06;3.38;;;2.00;;
75167;SDS011;63748;48.088;11.476;2023-05-07T03:10:32;2.38;;;2.17;;
75167;SDS011;63748;48.088;11.476;2023-05-07T03:12:58;6.32;;;2.35;;
75167;SDS011;63748;48.088;11.476;2023-05-07T03:15:24;4.25;;;2.42;;
75167;SDS011;63748;48.088;11.476;2023-05-07T03:17:50;3.28;;;2.08;;
75167;SDS011;63748;48.088;11.476;2023-05-07T03:20:16;3.90;;;2.67;;
75167;SDS011;63748;48.088;11.476;2023-05-07T03:22:42;4.93;;;2.30;;
75167;SDS011;63748;48.088;11.476;2023-05-07T03:25:08;3.20;;;2.45;;
75167;SDS011;63748;48.088;11.476;2023-05-07T03:27:34;4.18;;;2.42;;
75167;SDS011;63748;48.088;11.476;2023-05-07T03:30:00;4.53;;;2.45;;
75167;SDS011;63748;48.088;11.476;2023-05-07T03:32:26;2.75;;;2.05;;
75167;SDS011;63748;48.088;11.476;2023-05-07T03:34:53;5.25;;;2.20;;
75167;SDS011;63748;48.088;11.476;2023-05-07T03:37:19;2.72;;;2.15;;
75167;SDS011;63748;48.088;11.476;2023-05-07T03:39:46;3.10;;;2.10;;
75167;SDS011;63748;48.088;11.476;2023-05-07T03:42:12;3.20;;;2.20;;
75167;SDS011;63748;48.088;11.476;2023-05-07T03:44:38;3.78;;;2.15;;
75167;SDS011;63748;48.088;11.476;2023-05-07T03:47:06;2.92;;;1.73;;
75167;SDS011;63748;48.088;11.476;2023-05-07T03:49:32;2.70;;;1.80;;
75167;SDS011;63748;48.088;11.476;2023-05-07T03:51:58;2.83;;;1.80;;
75167;SDS011;63748;48.088;11.476;2023-05-07T03:54:24;2.55;;;1.90;;
75167;SDS011;63748;48.088;11.476;2023-05-07T03:56:50;2.90;;;1.70;;
75167;SDS011;63748;48.088;11.476;2023-05-07T03:59:16;2.67;;;2.28;;
75167;SDS011;63748;48.088;11.476;2023-05-07T04:01:42;5.18;;;2.40;;
75167;SDS011;63748;48.088;11.476;2023-05-07T04:04:09;3.67;;;2.30;;
75167;SDS011;63748;48.088;11.476;2023-05-07T04:06:35;2.75;;;1.83;;
75167;SDS011;63748;48.088;11.476;2023-05-07T04:09:01;2.08;;;1.77;;
75167;SDS011;63748;48.088;11.476;2023-05-07T04:11:27;2.25;;;1.70;;
75167;SDS011;63748;48.088;11.476;2023-05-07T04:13:53;2.70;;;1.95;;
75167;SDS011;63748;48.088;11.476;2023-05-07T04:16:19;2.40;;;2.13;;
75167;SDS011;63748;48.088;11.476;2023-05-07T04:18:45;2.17;;;1.70;;
75167;SDS011;63748;48.088;11.476;2023-05-07T04:21:15;2.83;;;2.50;;
75167;SDS011;63748;48.088;11.476;2023-05-07T04:23:41;3.05;;;2.00;;
75167;SDS011;63748;48.088;11.476;2023-05-07T04:26:07;4.65;;;2.30;;
75167;SDS011;63748;48.088;11.476;2023-05-07T04:28:33;6.28;;;2.47;;
75167;SDS011;63748;48.088;11.476;2023-05-07T04:31:00;3.45;;;2.10;;
75167;SDS011;63748;48.088;11.476;2023-05-07T04:33:26;6.68;;;2.53;;
75167;SDS011;63748;48.088;11.476;2023-05-07T04:35:52;2.70;;;1.92;;
75167;SDS011;63748;48.088;11.476;2023-05-07T04:38:18;2.30;;;2.10;;
75167;SDS011;63748;48.088;11.476;2023-05-07T04:40:44;3.20;;;2.00;;
75167;SDS011;63748;48.088;11.476;2023-05-07T04:43:11;2.30;;;2.05;;
75167;SDS011;63748;48.088;11.476;2023-05-07T04:45:38;2.47;;;2.13;;
75167;SDS011;63748;48.088;11.476;2023-05-07T04:50:32;3.05;;;2.10;;
75167;SDS011;63748;48.088;11.476;2023-05-07T04:52:58;4.00;;;2.70;;
75167;SDS011;63748;48.088;11.476;2023-05-07T04:55:24;3.67;;;1.80;;
75167;SDS011;63748;48.088;11.476;2023-05-07T04:57:51;2.83;;;2.10;;
75167;SDS011;63748;48.088;11.476;2023-05-07T05:00:17;2.63;;;2.05;;
75167;SDS011;63748;48.088;11.476;2023-05-07T05:02:44;4.13;;;2.40;;
75167;SDS011;63748;48.088;11.476;2023-05-07T05:05:10;2.40;;;2.00;;
75167;SDS011;63748;48.088;11.476;2023-05-07T05:07:37;4.72;;;2.25;;
75167;SDS011;63748;48.088;11.476;2023-05-07T05:10:04;3.20;;;2.38;;
75167;SDS011;63748;48.088;11.476;2023-05-07T05:12:31;3.00;;;2.20;;
75167;SDS011;63748;48.088;11.476;2023-05-07T05:14:57;2.90;;;2.22;;
75167;SDS011;63748;48.088;11.476;2023-05-07T05:17:23;2.83;;;2.20;;
75167;SDS011;63748;48.088;11.476;2023-05-07T05:19:49;3.17;;;2.05;;
75167;SDS011;63748;48.088;11.476;2023-05-07T05:22:16;2.90;;;1.95;;
75167;SDS011;63748;48.088;11.476;2023-05-07T05:24:42;2.85;;;2.10;;
75167;SDS011;63748;48.088;11.476;2023-05-07T05:27:08;3.80;;;2.22;;
75167;SDS011;63748;48.088;11.476;2023-05-07T05:29:34;2.55;;;2.13;;
75167;SDS011;63748;48.088;11.476;2023-05-07T05:32:00;4.45;;;2.00;;
75167;SDS011;63748;48.088;11.476;2023-05-07T05:34:26;2.72;;;1.98;;
75167;SDS011;63748;48.088;11.476;2023-05-07T05:36:52;3.85;;;2.40;;
75167;SDS011;63748;48.088;11.476;2023-05-07T05:39:18;3.25;;;2.33;;
75167;SDS011;63748;48.088;11.476;2023-05-07T05:41:44;2.95;;;2.05;;
75167;SDS011;63748;48.088;11.476;2023-05-07T05:44:10;3.58;;;2.65;;
75167;SDS011;63748;48.088;11.476;2023-05-07T05:46:36;3.55;;;2.45;;
75167;SDS011;63748;48.088;11.476;2023-05-07T05:49:02;3.90;;;2.88;;
75167;SDS011;63748;48.088;11.476;2023-05-07T05:51:28;3.67;;;2.50;;
75167;SDS011;63748;48.088;11.476;2023-05-07T05:53:55;3.75;;;2.40;;
75167;SDS011;63748;48.088;11.476;2023-05-07T05:56:21;4.03;;;2.90;;
75167;SDS011;63748;48.088;11.476;2023-05-07T05:58:47;3.60;;;2.40;;
75167;SDS011;63748;48.088;11.476;2023-05-07T06:01:13;3.75;;;3.08;;
75167;SDS011;63748;48.088;11.476;2023-05-07T06:03:40;11.18;;;3.72;;
75167;SDS011;63748;48.088;11.476;2023-05-07T06:06:06;5.45;;;4.05;;
75167;SDS011;63748;48.088;11.476;2023-05-07T06:08:32;5.03;;;3.72;;
75167;SDS011;63748;48.088;11.476;2023-05-07T06:10:58;5.30;;;3.58;;
75167;SDS011;63748;48.088;11.476;2023-05-07T06:13:25;5.45;;;3.38;;
75167;SDS011;63748;48.088;11.476;2023-05-07T06:15:51;6.22;;;4.00;;
75167;SDS011;63748;48.088;11.476;2023-05-07T06:18:17;7.70;;;3.85;;
75167;SDS011;63748;48.088;11.476;2023-05-07T06:20:43;4.28;;;3.40;;
75167;SDS011;63748;48.088;11.476;2023-05-07T06:23:09;6.30;;;3.97;;
75167;SDS011;63748;48.088;11.476;2023-05-07T06:25:35;4.68;;;3.33;;
75167;SDS011;63748;48.088;11.476;2023-05-07T06:28:01;4.55;;;3.22;;
75167;SDS011;63748;48.088;11.476;2023-05-07T06:30:27;6.25;;;3.53;;
75167;SDS011;63748;48.088;11.476;2023-05-07T06:32:53;3.65;;;3.10;;
75167;SDS011;63748;48.088;11.476;2023-05-07T06:35:19;3.30;;;2.95;;
75167;SDS011;63748;48.088;11.476;2023-05-07T06:37:45;3.70;;;2.78;;
75167;SDS011;63748;48.088;11.476;2023-05-07T06:40:11;4.22;;;2.63;;
75167;SDS011;63748;48.088;11.476;2023-05-07T06:42:37;3.10;;;2.70;;
75167;SDS011;63748;48.088;11.476;2023-05-07T06:45:03;3.38;;;2.70;;
75167;SDS011;63748;48.088;11.476;2023-05-07T06:47:30;3.47;;;2.10;;
75167;SDS011;63748;48.088;11.476;2023-05-07T06:49:56;4.63;;;2.63;;
75167;SDS011;63748;48.088;11.476;2023-05-07T06:52:22;3.47;;;2.50;;
75167;SDS011;63748;48.088;11.476;2023-05-07T06:54:48;3.63;;;2.80;;
75167;SDS011;63748;48.088;11.476;2023-05-07T06:57:14;6.30;;;2.85;;
75167;SDS011;63748;48.088;11.476;2023-05-07T06:59:40;6.25;;;3.22;;
75167;SDS011;63748;48.088;11.476;2023-05-07T07:02:06;2.58;;;2.20;;
75167;SDS011;63748;48.088;11.476;2023-05-07T07:04:33;3.55;;;2.70;;
75167;SDS011;63748;48.088;11.476;2023-05-07T07:06:59;4.40;;;2.70;;
75167;SDS011;63748;48.088;11.476;2023-05-07T07:09:25;5.00;;;2.63;;
75167;SDS011;63748;48.088;11.476;2023-05-07T07:11:51;3.60;;;2.30;;
75167;SDS011;63748;48.088;11.476;2023-05-07T07:14:17;3.53;;;2.53;;
75167;SDS011;63748;48.088;11.476;2023-05-07T07:16:43;3.85;;;2.50;;
75167;SDS011;63748;48.088;11.476;2023-05-07T07:19:11;4.70;;;2.70;;
75167;SDS011;63748;48.088;11.476;2023-05-07T07:21:37;3.75;;;2.30;;
75167;SDS011;63748;48.088;11.476;2023-05-07T07:24:03;2.88;;;2.47;;
75167;SDS011;63748;48.088;11.476;2023-05-07T07:26:30;2.53;;;2.00;;
75167;SDS011;63748;48.088;11.476;2023-05-07T07:28:56;3.20;;;2.13;;
75167;SDS011;63748;48.088;11.476;2023-05-07T07:31:22;2.92;;;2.40;;
75167;SDS011;63748;48.088;11.476;2023-05-07T07:33:48;2.33;;;1.92;;
75167;SDS011;63748;48.088;11.476;2023-05-07T07:36:15;3.85;;;2.47;;
75167;SDS011;63748;48.088;11.476;2023-05-07T07:38:41;3.20;;;2.60;;
75167;SDS011;63748;48.088;11.476;2023-05-07T07:41:08;2.72;;;2.13;;
75167;SDS011;63748;48.088;11.476;2023-05-07T07:43:34;2.50;;;2.03;;
75167;SDS011;63748;48.088;11.476;2023-05-07T07:46:00;4.32;;;2.10;;
75167;SDS011;63748;48.088;11.476;2023-05-07T07:48:26;2.83;;;2.10;;
75167;SDS011;63748;48.088;11.476;2023-05-07T07:50:52;2.38;;;2.17;;
75167;SDS011;63748;48.088;11.476;2023-05-07T07:53:19;2.90;;;2.00;;
75167;SDS011;63748;48.088;11.476;2023-05-07T07:55:45;3.85;;;2.40;;
75167;SDS011;63748;48.088;11.476;2023-05-07T07:58:11;2.45;;;2.10;;
75167;SDS011;63748;48.088;11.476;2023-05-07T08:00:37;3.63;;;2.15;;
75167;SDS011;63748;48.088;11.476;2023-05-07T08:03:03;4.18;;;2.60;;
75167;SDS011;63748;48.088;11.476;2023-05-07T08:05:30;2.88;;;2.20;;
75167;SDS011;63748;48.088;11.476;2023-05-07T08:07:56;3.63;;;2.35;;
75167;SDS011;63748;48.088;11.476;2023-05-07T08:10:23;2.58;;;2.13;;
75167;SDS011;63748;48.088;11.476;2023-05-07T08:12:49;2.28;;;1.73;;
75167;SDS011;63748;48.088;11.476;2023-05-07T08:15:15;3.88;;;2.03;;
75167;SDS011;63748;48.088;11.476;2023-05-07T08:17:41;2.45;;;1.83;;
75167;SDS011;63748;48.088;11.476;2023-05-07T08:20:07;3.78;;;2.15;;
75167;SDS011;63748;48.088;11.476;2023-05-07T08:22:34;3.17;;;2.13;;
75167;SDS011;63748;48.088;11.476;2023-05-07T08:25:00;4.38;;;2.13;;
75167;SDS011;63748;48.088;11.476;2023-05-07T08:27:26;3.50;;;2.40;;
75167;SDS011;63748;48.088;11.476;2023-05-07T08:29:53;3.80;;;2.40;;
75167;SDS011;63748;48.088;11.476;2023-05-07T08:32:19;3.08;;;1.95;;
75167;SDS011;63748;48.088;11.476;2023-05-07T08:34:46;3.28;;;2.33;;
75167;SDS011;63748;48.088;11.476;2023-05-07T08:37:12;2.38;;;2.13;;
75167;SDS011;63748;48.088;11.476;2023-05-07T08:39:38;2.67;;;2.25;;
75167;SDS011;63748;48.088;11.476;2023-05-07T08:42:04;3.00;;;2.13;;
75167;SDS011;63748;48.088;11.476;2023-05-07T08:44:33;2.95;;;1.70;;
75167;SDS011;63748;48.088;11.476;2023-05-07T08:47:00;3.35;;;2.05;;
75167;SDS011;63748;48.088;11.476;2023-05-07T08:49:29;3.72;;;2.10;;
75167;SDS011;63748;48.088;11.476;2023-05-07T08:51:55;2.38;;;2.08;;
75167;SDS011;63748;48.088;11.476;2023-05-07T08:54:21;3.45;;;2.25;;
75167;SDS011;63748;48.088;11.476;2023-05-07T08:56:48;3.00;;;2.22;;
75167;SDS011;63748;48.088;11.476;2023-05-07T08:59:14;2.13;;;1.85;;
75167;SDS011;63748;48.088;11.476;2023-05-07T09:01:40;3.10;;;2.00;;
75167;SDS011;63748;48.088;11.476;2023-05-07T09:04:06;2.83;;;1.60;;
75167;SDS011;63748;48.088;11.476;2023-05-07T09:06:32;2.60;;;1.63;;
75167;SDS011;63748;48.088;11.476;2023-05-07T09:08:59;3.80;;;2.30;;
75167;SDS011;63748;48.088;11.476;2023-05-07T09:11:26;2.45;;;2.08;;
75167;SDS011;63748;48.088;11.476;2023-05-07T09:13:56;3.05;;;2.50;;
75167;SDS011;63748;48.088;11.476;2023-05-07T09:16:28;3.35;;;2.17;;
75167;SDS011;63748;48.088;11.476;2023-05-07T09:18:55;3.53;;;2.08;;
75167;SDS011;63748;48.088;11.476;2023-05-07T09:21:21;3.00;;;1.90;;
75167;SDS011;63748;48.088;11.476;2023-05-07T09:23:51;3.67;;;1.70;;
75167;SDS011;63748;48.088;11.476;2023-05-07T09:26:17;2.80;;;1.70;;
75167;SDS011;63748;48.088;11.476;2023-05-07T09:28:43;3.47;;;2.10;;
75167;SDS011;63748;48.088;11.476;2023-05-07T09:31:11;3.42;;;2.10;;
75167;SDS011;63748;48.088;11.476;2023-05-07T09:33:38;2.35;;;2.00;;
75167;SDS011;63748;48.088;11.476;2023-05-07T09:36:05;2.70;;;1.60;;
75167;SDS011;63748;48.088;11.476;2023-05-07T09:38:32;4.53;;;1.63;;
75167;SDS011;63748;48.088;11.476;2023-05-07T09:41:01;6.47;;;1.85;;
75167;SDS011;63748;48.088;11.476;2023-05-07T09:43:31;2.03;;;1.83;;
75167;SDS011;63748;48.088;11.476;2023-05-07T09:45:58;2.58;;;1.80;;
75167;SDS011;63748;48.088;11.476;2023-05-07T09:48:25;2.63;;;1.98;;
75167;SDS011;63748;48.088;11.476;2023-05-07T09:50:51;2.40;;;1.85;;
75167;SDS011;63748;48.088;11.476;2023-05-07T09:55:49;5.18;;;1.80;;
75167;SDS011;63748;48.088;11.476;2023-05-07T09:58:16;2.42;;;1.50;;
75167;SDS011;63748;48.088;11.476;2023-05-07T10:00:42;3.22;;;2.30;;
75167;SDS011;63748;48.088;11.476;2023-05-07T10:03:08;2.90;;;1.80;;
75167;SDS011;63748;48.088;11.476;2023-05-07T10:05:35;3.42;;;2.42;;
75167;SDS011;63748;48.088;11.476;2023-05-07T10:08:01;2.63;;;1.63;;
75167;SDS011;63748;48.088;11.476;2023-05-07T10:10:28;2.55;;;1.70;;
75167;SDS011;63748;48.088;11.476;2023-05-07T10:12:55;2.10;;;1.63;;
75167;SDS011;63748;48.088;11.476;2023-05-07T10:15:21;1.88;;;1.25;;
75167;SDS011;63748;48.088;11.476;2023-05-07T10:17:49;3.33;;;1.55;;
75167;SDS011;63748;48.088;11.476;2023-05-07T10:20:15;3.25;;;1.77;;
75167;SDS011;63748;48.088;11.476;2023-05-07T10:22:43;2.53;;;1.63;;
75167;SDS011;63748;48.088;11.476;2023-05-07T10:25:26;2.20;;;1.83;;
75167;SDS011;63748;48.088;11.476;2023-05-07T10:27:54;2.58;;;2.13;;
75167;SDS011;63748;48.088;11.476;2023-05-07T10:32:56;3.47;;;1.35;;
75167;SDS011;63748;48.088;11.476;2023-05-07T10:35:30;2.83;;;1.45;;
75167;SDS011;63748;48.088;11.476;2023-05-07T10:37:57;1.83;;;1.58;;
75167;SDS011;63748;48.088;11.476;2023-05-07T10:40:24;1.70;;;1.60;;
75167;SDS011;63748;48.088;11.476;2023-05-07T10:42:55;1.90;;;1.70;;
75167;SDS011;63748;48.088;11.476;2023-05-07T10:45:22;2.78;;;2.00;;
75167;SDS011;63748;48.088;11.476;2023-05-07T10:48:10;2.05;;;1.33;;
75167;SDS011;63748;48.088;11.476;2023-05-07T10:50:35;4.97;;;1.98;;
75167;SDS011;63748;48.088;11.476;2023-05-07T10:55:43;3.65;;;1.55;;
75167;SDS011;63748;48.088;11.476;2023-05-07T10:58:22;2.13;;;1.42;;
75167;SDS011;63748;48.088;11.476;2023-05-07T11:00:50;2.22;;;1.50;;
75167;SDS011;63748;48.088;11.476;2023-05-07T11:03:17;2.83;;;1.70;;
75167;SDS011;63748;48.088;11.476;2023-05-07T11:05:43;2.25;;;1.90;;
75167;SDS011;63748;48.088;11.476;2023-05-07T11:08:10;2.00;;;1.63;;
75167;SDS011;63748;48.088;11.476;2023-05-07T11:10:52;2.85;;;1.75;;
75167;SDS011;63748;48.088;11.476;2023-05-07T11:13:40;1.83;;;1.70;;
75167;SDS011;63748;48.088;11.476;2023-05-07T11:16:05;4.18;;;1.80;;
75167;SDS011;63748;48.088;11.476;2023-05-07T11:18:48;2.63;;;1.40;;
75167;SDS011;63748;48.088;11.476;2023-05-07T11:24:19;4.13;;;1.60;;
75167;SDS011;63748;48.088;11.476;2023-05-07T11:31:41;2.42;;;1.80;;
75167;SDS011;63748;48.088;11.476;2023-05-07T11:34:08;2.65;;;1.48;;
75167;SDS011;63748;48.088;11.476;2023-05-07T11:36:35;3.88;;;1.50;;
75167;SDS011;63748;48.088;11.476;2023-05-07T11:39:01;2.40;;;1.58;;
75167;SDS011;63748;48.088;11.476;2023-05-07T11:41:34;2.40;;;1.70;;
75167;SDS011;63748;48.088;11.476;2023-05-07T11:44:01;2.95;;;2.25;;
75167;SDS011;63748;48.088;11.476;2023-05-07T11:46:27;2.15;;;1.92;;
75167;SDS011;63748;48.088;11.476;2023-05-07T11:48:54;3.00;;;1.63;;
75167;SDS011;63748;48.088;11.476;2023-05-07T11:51:21;2.63;;;1.83;;
75167;SDS011;63748;48.088;11.476;2023-05-07T11:53:47;1.90;;;1.70;;
75167;SDS011;63748;48.088;11.476;2023-05-07T11:56:15;2.33;;;1.65;;
75167;SDS011;63748;48.088;11.476;2023-05-07T11:58:41;4.10;;;2.15;;
75167;SDS011;63748;48.088;11.476;2023-05-07T12:01:08;3.03;;;2.20;;
75167;SDS011;63748;48.088;11.476;2023-05-07T12:03:35;2.92;;;1.77;;
75167;SDS011;63748;48.088;11.476;2023-05-07T12:06:02;2.60;;;1.80;;
75167;SDS011;63748;48.088;11.476;2023-05-07T12:08:28;2.25;;;2.00;;
75167;SDS011;63748;48.088;11.476;2023-05-07T12:10:55;3.28;;;2.30;;
75167;SDS011;63748;48.088;11.476;2023-05-07T12:13:21;4.00;;;1.85;;
75167;SDS011;63748;48.088;11.476;2023-05-07T12:15:51;3.92;;;2.30;;
75167;SDS011;63748;48.088;11.476;2023-05-07T12:18:18;4.13;;;2.00;;
75167;SDS011;63748;48.088;11.476;2023-05-07T12:20:44;2.58;;;2.38;;
75167;SDS011;63748;48.088;11.476;2023-05-07T12:23:10;3.75;;;2.00;;
75167;SDS011;63748;48.088;11.476;2023-05-07T12:25:37;3.28;;;2.53;;
75167;SDS011;63748;48.088;11.476;2023-05-07T12:28:03;3.95;;;2.53;;
75167;SDS011;63748;48.088;11.476;2023-05-07T12:30:39;4.30;;;2.15;;
75167;SDS011;63748;48.088;11.476;2023-05-07T12:33:05;4.63;;;2.72;;
75167;SDS011;63748;48.088;11.476;2023-05-07T12:35:32;3.03;;;2.05;;
75167;SDS011;63748;48.088;11.476;2023-05-07T12:37:58;3.63;;;2.78;;
75167;SDS011;63748;48.088;11.476;2023-05-07T12:40:39;4.35;;;2.25;;
75167;SDS011;63748;48.088;11.476;2023-05-07T12:43:05;2.67;;;2.38;;
75167;SDS011;63748;48.088;11.476;2023-05-07T12:45:32;2.97;;;2.65;;
75167;SDS011;63748;48.088;11.476;2023-05-07T12:48:02;4.25;;;3.05;;
75167;SDS011;63748;48.088;11.476;2023-05-07T12:50:32;3.00;;;2.33;;
75167;SDS011;63748;48.088;11.476;2023-05-07T12:52:58;3.30;;;2.28;;
75167;SDS011;63748;48.088;11.476;2023-05-07T12:55:25;3.42;;;2.15;;
75167;SDS011;63748;48.088;11.476;2023-05-07T12:57:51;4.18;;;2.30;;
75167;SDS011;63748;48.088;11.476;2023-05-07T13:00:32;3.10;;;2.15;;
75167;SDS011;63748;48.088;11.476;2023-05-07T13:02:58;3.10;;;2.22;;
75167;SDS011;63748;48.088;11.476;2023-05-07T13:05:24;3.45;;;2.10;;
75167;SDS011;63748;48.088;11.476;2023-05-07T13:07:56;3.58;;;1.92;;
75167;SDS011;63748;48.088;11.476;2023-05-07T13:10:23;3.38;;;1.90;;
75167;SDS011;63748;48.088;11.476;2023-05-07T13:12:49;3.00;;;2.28;;
75167;SDS011;63748;48.088;11.476;2023-05-07T13:15:15;3.30;;;2.40;;
75167;SDS011;63748;48.088;11.476;2023-05-07T13:17:42;2.08;;;1.80;;
75167;SDS011;63748;48.088;11.476;2023-05-07T13:20:11;2.45;;;1.80;;
75167;SDS011;63748;48.088;11.476;2023-05-07T13:22:40;2.70;;;1.85;;
75167;SDS011;63748;48.088;11.476;2023-05-07T13:25:06;2.50;;;1.70;;
75167;SDS011;63748;48.088;11.476;2023-05-07T13:27:33;2.50;;;1.73;;
75167;SDS011;63748;48.088;11.476;2023-05-07T13:30:02;3.85;;;1.77;;
75167;SDS011;63748;48.088;11.476;2023-05-07T13:32:28;2.38;;;1.60;;
75167;SDS011;63748;48.088;11.476;2023-05-07T13:34:54;2.85;;;1.67;;
75167;SDS011;63748;48.088;11.476;2023-05-07T13:37:20;2.90;;;2.00;;
75167;SDS011;63748;48.088;11.476;2023-05-07T13:39:46;2.45;;;2.25;;
75167;SDS011;63748;48.088;11.476;2023-05-07T13:42:12;5.57;;;2.40;;
75167;SDS011;63748;48.088;11.476;2023-05-07T13:44:38;3.35;;;2.00;;
75167;SDS011;63748;48.088;11.476;2023-05-07T13:47:04;2.92;;;2.30;;
75167;SDS011;63748;48.088;11.476;2023-05-07T13:49:30;2.13;;;1.63;;
75167;SDS011;63748;48.088;11.476;2023-05-07T13:51:56;3.35;;;1.70;;
75167;SDS011;63748;48.088;11.476;2023-05-07T13:54:22;1.80;;;1.70;;
75167;SDS011;63748;48.088;11.476;2023-05-07T13:56:49;1.80;;;1.48;;
75167;SDS011;63748;48.088;11.476;2023-05-07T13:59:15;3.85;;;1.70;;
75167;SDS011;63748;48.088;11.476;2023-05-07T14:01:41;4.93;;;1.75;;
75167;SDS011;63748;48.088;11.476;2023-05-07T14:04:07;4.75;;;2.65;;
75167;SDS011;63748;48.088;11.476;2023-05-07T14:06:33;2.08;;;1.70;;
75167;SDS011;63748;48.088;11.476;2023-05-07T14:08:59;2.50;;;1.77;;
75167;SDS011;63748;48.088;11.476;2023-05-07T14:11:25;2.50;;;1.40;;
75167;SDS011;63748;48.088;11.476;2023-05-07T14:13:51;1.90;;;1.25;;
75167;SDS011;63748;48.088;11.476;2023-05-07T14:16:17;2.67;;;1.70;;
75167;SDS011;63748;48.088;11.476;2023-05-07T14:18:43;5.15;;;1.60;;
75167;SDS011;63748;48.088;11.476;2023-05-07T14:21:09;1.90;;;1.50;;
75167;SDS011;63748;48.088;11.476;2023-05-07T14:23:35;2.58;;;1.90;;
75167;SDS011;63748;48.088;11.476;2023-05-07T14:26:01;2.67;;;2.13;;
75167;SDS011;63748;48.088;11.476;2023-05-07T14:28:27;2.25;;;1.50;;
75167;SDS011;63748;48.088;11.476;2023-05-07T14:30:53;2.58;;;1.55;;
75167;SDS011;63748;48.088;11.476;2023-05-07T14:33:20;4.28;;;1.95;;
75167;SDS011;63748;48.088;11.476;2023-05-07T14:35:46;3.15;;;1.40;;
75167;SDS011;63748;48.088;11.476;2023-05-07T14:38:14;2.58;;;1.90;;
75167;SDS011;63748;48.088;11.476;2023-05-07T14:40:40;2.80;;;1.95;;
75167;SDS011;63748;48.088;11.476;2023-05-07T14:43:06;2.75;;;2.13;;
75167;SDS011;63748;48.088;11.476;2023-05-07T14:45:32;2.65;;;1.58;;
75167;SDS011;63748;48.088;11.476;2023-05-07T14:47:58;3.10;;;1.95;;
75167;SDS011;63748;48.088;11.476;2023-05-07T14:50:24;2.28;;;1.90;;